sensor_id;sensor_type;location;lat;lon;timestamp;pressure;altitude;pressure_sealevel;temperature;humidity
10079;BME280;5078;42.544;22.966;2023-09-30T00:01:53;94335.19;;;12.91;97.18
10079;BME280;5078;42.544;22.966;2023-09-30T00:04:21;94329.13;;;12.97;97.14
10079;BME280;5078;42.544;22.966;2023-09-30T00:06:47;94329.19;;;12.89;98.43
10079;BME280;5078;42.544;22.966;2023-09-30T00:09:14;94322.03;;;12.89;98.61
10079;BME280;5078;42.544;22.966;2023-09-30T00:11:41;94327.25;;;12.83;99.03
10079;BME280;5078;42.544;22.966;2023-09-30T00:14:08;94327.84;;;12.93;98.64
10079;BME280;5078;42.544;22.966;2023-09-30T00:16:34;94317.53;;;12.90;98.70
10079;BME280;5078;42.544;22.966;2023-09-30T00:19:01;94324.13;;;12.79;98.87
10079;BME280;5078;42.544;22.966;2023-09-30T00:21:30;94332.50;;;12.68;100.00
10079;BME280;5078;42.544;22.966;2023-09-30T00:23:57;94331.34;;;12.70;100.00
10079;BME280;5078;42.544;22.966;2023-09-30T00:26:23;94323.81;;;12.74;100.00
10079;BME280;5078;42.544;22.966;2023-09-30T00:28:50;94329.38;;;12.87;99.56
10079;BME280;5078;42.544;22.966;2023-09-30T00:31:17;94323.22;;;12.87;99.87
10079;BME280;5078;42.544;22.966;2023-09-30T00:33:43;94324.53;;;12.91;99.15
10079;BME280;5078;42.544;22.966;2023-09-30T00:36:10;94317.81;;;12.95;99.55
10079;BME280;5078;42.544;22.966;2023-09-30T00:38:38;94320.16;;;12.98;98.37
10079;BME280;5078;42.544;22.966;2023-09-30T00:41:05;94323.94;;;12.81;100.00
10079;BME280;5078;42.544;22.966;2023-09-30T00:43:32;94329.06;;;12.82;100.00
10079;BME280;5078;42.544;22.966;2023-09-30T00:46:02;94332.09;;;12.56;100.00
10079;BME280;5078;42.544;22.966;2023-09-30T00:48:33;94333.28;;;12.77;100.00
10079;BME280;5078;42.544;22.966;2023-09-30T00:51:00;94334.16;;;12.92;100.00
10079;BME280;5078;42.544;22.966;2023-09-30T00:53:27;94327.56;;;13.03;99.64
10079;BME280;5078;42.544;22.966;2023-09-30T00:55:57;94329.06;;;13.05;99.35
10079;BME280;5078;42.544;22.966;2023-09-30T00:58:26;94314.06;;;12.89;98.68
10079;BME280;5078;42.544;22.966;2023-09-30T01:00:56;94339.06;;;12.80;99.96
10079;BME280;5078;42.544;22.966;2023-09-30T01:03:23;94340.00;;;12.64;100.00
10079;BME280;5078;42.544;22.966;2023-09-30T01:05:50;94332.63;;;12.74;100.00
10079;BME280;5078;42.544;22.966;2023-09-30T01:08:17;94316.72;;;12.66;100.00
10079;BME280;5078;42.544;22.966;2023-09-30T01:10:45;94328.06;;;12.60;100.00
10079;BME280;5078;42.544;22.966;2023-09-30T01:13:13;94328.94;;;12.52;100.00
10079;BME280;5078;42.544;22.966;2023-09-30T01:15:40;94318.28;;;12.29;100.00
10079;BME280;5078;42.544;22.966;2023-09-30T01:18:07;94320.59;;;12.33;100.00
10079;BME280;5078;42.544;22.966;2023-09-30T01:20:34;94321.59;;;12.32;100.00
10079;BME280;5078;42.544;22.966;2023-09-30T01:23:02;94325.53;;;12.44;100.00
10079;BME280;5078;42.544;22.966;2023-09-30T01:25:29;94326.50;;;12.43;100.00
10079;BME280;5078;42.544;22.966;2023-09-30T01:27:55;94318.22;;;12.38;100.00
10079;BME280;5078;42.544;22.966;2023-09-30T01:30:25;94323.53;;;12.46;100.00
10079;BME280;5078;42.544;22.966;2023-09-30T01:32:51;94319.53;;;12.42;100.00
10079;BME280;5078;42.544;22.966;2023-09-30T01:35:19;94322.81;;;12.52;100.00
10079;BME280;5078;42.544;22.966;2023-09-30T01:37:46;94314.53;;;12.47;100.00
10079;BME280;5078;42.544;22.966;2023-09-30T01:40:14;94318.22;;;12.46;100.00
10079;BME280;5078;42.544;22.966;2023-09-30T01:42:43;94326.22;;;12.38;100.00
10079;BME280;5078;42.544;22.966;2023-09-30T01:45:10;94320.56;;;12.41;100.00
10079;BME280;5078;42.544;22.966;2023-09-30T01:47:37;94322.06;;;12.35;100.00
10079;BME280;5078;42.544;22.966;2023-09-30T01:50:04;94319.72;;;12.40;100.00
10079;BME280;5078;42.544;22.966;2023-09-30T01:52:31;94319.97;;;12.22;100.00
10079;BME280;5078;42.544;22.966;2023-09-30T01:54:58;94316.19;;;12.17;100.00
10079;BME280;5078;42.544;22.966;2023-09-30T01:57:26;94322.75;;;11.98;100.00
10079;BME280;5078;42.544;22.966;2023-09-30T01:59:52;94315.19;;;11.86;100.00
10079;BME280;5078;42.544;22.966;2023-09-30T02:02:19;94327.28;;;11.33;100.00
10079;BME280;5078;42.544;22.966;2023-09-30T02:04:46;94318.81;;;11.77;100.00
10079;BME280;5078;42.544;22.966;2023-09-30T02:07:12;94322.91;;;12.04;100.00
10079;BME280;5078;42.544;22.966;2023-09-30T02:09:39;94318.72;;;12.10;100.00
10079;BME280;5078;42.544;22.966;2023-09-30T02:12:06;94321.88;;;12.05;100.00
10079;BME280;5078;42.544;22.966;2023-09-30T02:14:36;94309.75;;;12.11;100.00
10079;BME280;5078;42.544;22.966;2023-09-30T02:17:04;94322.19;;;12.19;100.00
10079;BME280;5078;42.544;22.966;2023-09-30T02:19:30;94323.97;;;12.26;100.00
10079;BME280;5078;42.544;22.966;2023-09-30T02:21:59;94319.41;;;12.04;100.00
10079;BME280;5078;42.544;22.966;2023-09-30T02:24:25;94318.31;;;11.90;100.00
10079;BME280;5078;42.544;22.966;2023-09-30T02:26:52;94320.41;;;12.03;100.00
10079;BME280;5078;42.544;22.966;2023-09-30T02:29:19;94319.13;;;11.82;100.00
10079;BME280;5078;42.544;22.966;2023-09-30T02:31:47;94310.53;;;11.89;100.00
10079;BME280;5078;42.544;22.966;2023-09-30T02:34:14;94308.56;;;11.74;100.00
10079;BME280;5078;42.544;22.966;2023-09-30T02:36:41;94310.31;;;11.42;100.00
10079;BME280;5078;42.544;22.966;2023-09-30T02:39:07;94312.53;;;11.70;100.00
10079;BME280;5078;42.544;22.966;2023-09-30T02:41:35;94297.84;;;11.51;100.00
10079;BME280;5078;42.544;22.966;2023-09-30T02:44:03;94314.75;;;11.58;100.00
10079;BME280;5078;42.544;22.966;2023-09-30T02:46:30;94308.94;;;11.55;100.00
10079;BME280;5078;42.544;22.966;2023-09-30T02:48:58;94320.06;;;11.58;100.00
10079;BME280;5078;42.544;22.966;2023-09-30T02:51:24;94316.75;;;11.56;100.00
10079;BME280;5078;42.544;22.966;2023-09-30T02:53:51;94313.47;;;11.38;100.00
10079;BME280;5078;42.544;22.966;2023-09-30T02:56:18;94321.56;;;11.61;100.00
10079;BME280;5078;42.544;22.966;2023-09-30T02:58:45;94323.97;;;11.79;100.00
10079;BME280;5078;42.544;22.966;2023-09-30T03:01:14;94317.53;;;11.73;100.00
10079;BME280;5078;42.544;22.966;2023-09-30T03:03:42;94319.34;;;11.73;100.00
10079;BME280;5078;42.544;22.966;2023-09-30T03:06:11;94318.75;;;11.54;100.00
10079;BME280;5078;42.544;22.966;2023-09-30T03:08:39;94313.03;;;11.74;100.00
10079;BME280;5078;42.544;22.966;2023-09-30T03:11:06;94318.81;;;11.77;100.00
10079;BME280;5078;42.544;22.966;2023-09-30T03:13:33;94312.03;;;11.75;100.00
10079;BME280;5078;42.544;22.966;2023-09-30T03:16:00;94320.81;;;11.83;100.00
10079;BME280;5078;42.544;22.966;2023-09-30T03:18:28;94323.09;;;11.95;100.00
10079;BME280;5078;42.544;22.966;2023-09-30T03:20:59;94323.16;;;11.78;100.00
10079;BME280;5078;42.544;22.966;2023-09-30T03:23:28;94315.38;;;11.69;100.00
10079;BME280;5078;42.544;22.966;2023-09-30T03:25:56;94318.72;;;11.71;100.00
10079;BME280;5078;42.544;22.966;2023-09-30T03:28:23;94315.06;;;11.63;100.00
10079;BME280;5078;42.544;22.966;2023-09-30T03:30:50;94317.25;;;11.52;100.00
10079;BME280;5078;42.544;22.966;2023-09-30T03:33:17;94316.94;;;11.47;100.00
10079;BME280;5078;42.544;22.966;2023-09-30T03:35:44;94316.97;;;11.38;100.00
10079;BME280;5078;42.544;22.966;2023-09-30T03:38:11;94305.00;;;11.42;100.00
10079;BME280;5078;42.544;22.966;2023-09-30T03:40:40;94308.59;;;11.58;100.00
10079;BME280;5078;42.544;22.966;2023-09-30T03:43:13;94316.94;;;11.47;100.00
10079;BME280;5078;42.544;22.966;2023-09-30T03:45:39;94310.47;;;11.49;100.00
10079;BME280;5078;42.544;22.966;2023-09-30T03:48:06;94318.25;;;11.59;100.00
10079;BME280;5078;42.544;22.966;2023-09-30T03:50:33;94319.22;;;11.66;100.00
10079;BME280;5078;42.544;22.966;2023-09-30T03:53:01;94319.34;;;11.73;100.00
10079;BME280;5078;42.544;22.966;2023-09-30T03:55:28;94319.22;;;11.66;100.00
10079;BME280;5078;42.544;22.966;2023-09-30T03:57:57;94318.91;;;11.61;100.00
10079;BME280;5078;42.544;22.966;2023-09-30T04:00:24;94317.00;;;11.14;100.00
10079;BME280;5078;42.544;22.966;2023-09-30T04:02:51;94319.94;;;11.35;100.00
10079;BME280;5078;42.544;22.966;2023-09-30T04:05:23;94318.63;;;11.39;100.00
10079;BME280;5078;42.544;22.966;2023-09-30T04:07:54;94319.34;;;11.09;100.00
10079;BME280;5078;42.544;22.966;2023-09-30T04:10:20;94307.22;;;10.98;100.00
10079;BME280;5078;42.544;22.966;2023-09-30T04:12:48;94321.97;;;11.17;100.00
10079;BME280;5078;42.544;22.966;2023-09-30T04:15:16;94315.69;;;10.85;100.00
10079;BME280;5078;42.544;22.966;2023-09-30T04:17:42;94314.69;;;10.94;100.00
10079;BME280;5078;42.544;22.966;2023-09-30T04:20:09;94319.03;;;10.71;100.00
10079;BME280;5078;42.544;22.966;2023-09-30T04:22:41;94314.50;;;11.20;100.00
10079;BME280;5078;42.544;22.966;2023-09-30T04:25:11;94317.59;;;11.40;100.00
10079;BME280;5078;42.544;22.966;2023-09-30T04:27:41;94324.41;;;11.51;100.00
10079;BME280;5078;42.544;22.966;2023-09-30T04:30:08;94323.53;;;11.59;100.00
10079;BME280;5078;42.544;22.966;2023-09-30T04:32:38;94315.72;;;11.65;100.00
10079;BME280;5078;42.544;22.966;2023-09-30T04:35:05;94320.06;;;11.58;100.00
10079;BME280;5078;42.544;22.966;2023-09-30T04:37:33;94321.91;;;11.50;100.00
10079;BME280;5078;42.544;22.966;2023-09-30T04:39:59;94319.69;;;11.70;100.00
10079;BME280;5078;42.544;22.966;2023-09-30T04:42:26;94321.47;;;11.77;100.00
10079;BME280;5078;42.544;22.966;2023-09-30T04:44:53;94324.53;;;11.58;100.00
10079;BME280;5078;42.544;22.966;2023-09-30T04:47:20;94336.84;;;11.42;100.00
10079;BME280;5078;42.544;22.966;2023-09-30T04:49:50;94331.59;;;11.26;100.00
10079;BME280;5078;42.544;22.966;2023-09-30T04:52:17;94332.22;;;11.36;100.00
10079;BME280;5078;42.544;22.966;2023-09-30T04:54:44;94334.19;;;11.42;100.00
10079;BME280;5078;42.544;22.966;2023-09-30T04:57:11;94327.63;;;11.14;100.00
10079;BME280;5078;42.544;22.966;2023-09-30T04:59:38;94334.22;;;11.18;100.00
10079;BME280;5078;42.544;22.966;2023-09-30T05:02:04;94328.66;;;11.60;100.00
10079;BME280;5078;42.544;22.966;2023-09-30T05:04:31;94333.63;;;11.72;100.00
10079;BME280;5078;42.544;22.966;2023-09-30T05:06:59;94335.94;;;11.91;100.00
10079;BME280;5078;42.544;22.966;2023-09-30T05:09:26;94341.50;;;12.04;100.00
10079;BME280;5078;42.544;22.966;2023-09-30T05:11:53;94336.66;;;12.16;100.00
10079;BME280;5078;42.544;22.966;2023-09-30T05:14:20;94344.22;;;12.27;100.00
10079;BME280;5078;42.544;22.966;2023-09-30T05:16:47;94343.91;;;12.22;100.00
10079;BME280;5078;42.544;22.966;2023-09-30T05:19:14;94339.97;;;12.18;100.00
10079;BME280;5078;42.544;22.966;2023-09-30T05:21:41;94352.91;;;12.21;100.00
10079;BME280;5078;42.544;22.966;2023-09-30T05:24:09;94344.81;;;12.06;100.00
10079;BME280;5078;42.544;22.966;2023-09-30T05:26:36;94344.34;;;12.34;100.00
10079;BME280;5078;42.544;22.966;2023-09-30T05:29:02;94344.00;;;12.68;100.00
10079;BME280;5078;42.544;22.966;2023-09-30T05:31:29;94344.59;;;12.79;100.00
10079;BME280;5078;42.544;22.966;2023-09-30T05:33:56;94335.97;;;13.52;99.28
10079;BME280;5078;42.544;22.966;2023-09-30T05:36:23;94353.91;;;13.44;98.63
10079;BME280;5078;42.544;22.966;2023-09-30T05:38:49;94353.72;;;13.75;94.87
10079;BME280;5078;42.544;22.966;2023-09-30T05:41:17;94348.25;;;14.42;90.66
10079;BME280;5078;42.544;22.966;2023-09-30T05:43:46;94340.09;;;15.23;81.10
10079;BME280;5078;42.544;22.966;2023-09-30T05:46:14;94347.72;;;14.83;82.75
10079;BME280;5078;42.544;22.966;2023-09-30T05:48:41;94358.28;;;14.92;81.69
10079;BME280;5078;42.544;22.966;2023-09-30T05:51:08;94348.84;;;15.17;79.96
10079;BME280;5078;42.544;22.966;2023-09-30T05:53:34;94351.50;;;15.39;79.43
10079;BME280;5078;42.544;22.966;2023-09-30T05:56:01;94351.38;;;16.03;71.78
10079;BME280;5078;42.544;22.966;2023-09-30T05:58:30;94348.72;;;16.51;67.65
10079;BME280;5078;42.544;22.966;2023-09-30T06:00:57;94346.84;;;17.07;64.10
10079;BME280;5078;42.544;22.966;2023-09-30T06:03:25;94360.81;;;16.89;64.40
10079;BME280;5078;42.544;22.966;2023-09-30T06:05:54;94355.72;;;17.20;62.64
10079;BME280;5078;42.544;22.966;2023-09-30T06:08:21;94351.63;;;17.38;61.29
10079;BME280;5078;42.544;22.966;2023-09-30T06:10:48;94362.75;;;17.15;60.89
10079;BME280;5078;42.544;22.966;2023-09-30T06:13:15;94356.28;;;16.89;63.73
10079;BME280;5078;42.544;22.966;2023-09-30T06:15:43;94364.22;;;17.91;59.97
10079;BME280;5078;42.544;22.966;2023-09-30T06:18:12;94362.47;;;18.29;58.50
10079;BME280;5078;42.544;22.966;2023-09-30T06:20:40;94354.16;;;18.44;55.93
10079;BME280;5078;42.544;22.966;2023-09-30T06:23:07;94355.44;;;18.35;56.11
10079;BME280;5078;42.544;22.966;2023-09-30T06:25:35;94355.53;;;17.88;58.79
10079;BME280;5078;42.544;22.966;2023-09-30T06:28:02;94355.34;;;18.62;57.51
10079;BME280;5078;42.544;22.966;2023-09-30T06:30:30;94358.06;;;19.32;54.38
10079;BME280;5078;42.544;22.966;2023-09-30T06:33:00;94350.41;;;19.04;54.85
10079;BME280;5078;42.544;22.966;2023-09-30T06:35:30;94321.53;;;19.49;52.97
10079;BME280;5078;42.544;22.966;2023-09-30T06:38:02;94357.78;;;19.15;54.46
10079;BME280;5078;42.544;22.966;2023-09-30T06:40:30;94355.22;;;20.45;50.79
10079;BME280;5078;42.544;22.966;2023-09-30T06:42:57;94351.88;;;20.87;48.39
10079;BME280;5078;42.544;22.966;2023-09-30T06:45:26;94352.09;;;21.46;46.47
10079;BME280;5078;42.544;22.966;2023-09-30T06:47:53;94342.41;;;21.68;44.28
10079;BME280;5078;42.544;22.966;2023-09-30T06:50:22;94355.34;;;22.13;42.37
10079;BME280;5078;42.544;22.966;2023-09-30T06:52:49;94346.50;;;21.59;43.79
10079;BME280;5078;42.544;22.966;2023-09-30T06:55:16;94355.09;;;21.80;42.29
10079;BME280;5078;42.544;22.966;2023-09-30T06:57:42;94349.22;;;21.59;42.68
10079;BME280;5078;42.544;22.966;2023-09-30T07:00:11;94356.00;;;21.31;43.46
10079;BME280;5078;42.544;22.966;2023-09-30T07:02:38;94348.84;;;20.95;43.23
10079;BME280;5078;42.544;22.966;2023-09-30T07:05:07;94350.88;;;21.00;43.82
10079;BME280;5078;42.544;22.966;2023-09-30T07:07:35;94345.97;;;21.39;43.23
10079;BME280;5078;42.544;22.966;2023-09-30T07:10:02;94354.97;;;21.02;44.54
10079;BME280;5078;42.544;22.966;2023-09-30T07:12:29;94340.78;;;21.91;42.61
10079;BME280;5078;42.544;22.966;2023-09-30T07:14:57;94351.47;;;22.21;42.50
10079;BME280;5078;42.544;22.966;2023-09-30T07:17:24;94351.00;;;22.36;42.55
10079;BME280;5078;42.544;22.966;2023-09-30T07:19:50;94347.50;;;22.24;43.39
10079;BME280;5078;42.544;22.966;2023-09-30T07:22:17;94354.53;;;23.00;41.86
10079;BME280;5078;42.544;22.966;2023-09-30T07:24:45;94345.00;;;23.72;41.04
10079;BME280;5078;42.544;22.966;2023-09-30T07:27:12;94348.22;;;24.20;39.41
10079;BME280;5078;42.544;22.966;2023-09-30T07:29:38;94347.72;;;24.23;39.25
10079;BME280;5078;42.544;22.966;2023-09-30T07:32:07;94350.06;;;24.36;39.36
10079;BME280;5078;42.544;22.966;2023-09-30T07:34:34;94349.75;;;24.49;39.43
10079;BME280;5078;42.544;22.966;2023-09-30T07:37:00;94351.09;;;24.13;39.56
10079;BME280;5078;42.544;22.966;2023-09-30T07:39:29;94347.34;;;24.14;40.65
10079;BME280;5078;42.544;22.966;2023-09-30T07:41:57;94351.47;;;24.39;38.25
10079;BME280;5078;42.544;22.966;2023-09-30T07:44:23;94335.19;;;24.00;37.86
10079;BME280;5078;42.544;22.966;2023-09-30T07:46:50;94345.66;;;24.47;36.99
10079;BME280;5078;42.544;22.966;2023-09-30T07:49:17;94344.97;;;24.57;37.58
10079;BME280;5078;42.544;22.966;2023-09-30T07:51:44;94341.19;;;24.80;36.51
10079;BME280;5078;42.544;22.966;2023-09-30T07:54:11;94344.03;;;24.90;36.77
10079;BME280;5078;42.544;22.966;2023-09-30T07:56:38;94344.47;;;25.26;35.79
10079;BME280;5078;42.544;22.966;2023-09-30T07:59:06;94343.16;;;25.06;36.26
10079;BME280;5078;42.544;22.966;2023-09-30T08:01:33;94356.69;;;25.55;36.07
10079;BME280;5078;42.544;22.966;2023-09-30T08:03:59;94347.84;;;25.38;36.10
10079;BME280;5078;42.544;22.966;2023-09-30T08:06:26;94353.13;;;25.50;36.42
10079;BME280;5078;42.544;22.966;2023-09-30T08:08:53;94345.78;;;25.23;36.13
10079;BME280;5078;42.544;22.966;2023-09-30T08:11:20;94345.22;;;25.48;36.04
10079;BME280;5078;42.544;22.966;2023-09-30T08:13:47;94341.97;;;25.19;35.14
10079;BME280;5078;42.544;22.966;2023-09-30T08:16:15;94345.75;;;25.45;36.56
10079;BME280;5078;42.544;22.966;2023-09-30T08:18:42;94340.88;;;25.47;37.07
10079;BME280;5078;42.544;22.966;2023-09-30T08:21:09;94341.34;;;25.98;35.90
10079;BME280;5078;42.544;22.966;2023-09-30T08:23:36;94347.63;;;25.72;35.19
10079;BME280;5078;42.544;22.966;2023-09-30T08:26:04;94344.50;;;25.85;36.36
10079;BME280;5078;42.544;22.966;2023-09-30T08:28:31;94316.63;;;25.68;34.22
10079;BME280;5078;42.544;22.966;2023-09-30T08:31:02;94340.50;;;26.30;34.57
10079;BME280;5078;42.544;22.966;2023-09-30T08:33:30;94335.31;;;25.86;34.87
10079;BME280;5078;42.544;22.966;2023-09-30T08:36:01;94348.84;;;26.56;33.38
10079;BME280;5078;42.544;22.966;2023-09-30T08:38:32;94343.34;;;26.51;32.43
10079;BME280;5078;42.544;22.966;2023-09-30T08:40:59;94343.03;;;26.04;32.02
10079;BME280;5078;42.544;22.966;2023-09-30T08:43:26;94334.69;;;26.11;32.50
10079;BME280;5078;42.544;22.966;2023-09-30T08:45:53;94343.78;;;25.95;32.52
10079;BME280;5078;42.544;22.966;2023-09-30T08:48:21;94329.06;;;25.91;31.27
10079;BME280;5078;42.544;22.966;2023-09-30T08:50:53;94335.63;;;25.68;31.67
10079;BME280;5078;42.544;22.966;2023-09-30T08:53:21;94334.34;;;25.75;31.78
10079;BME280;5078;42.544;22.966;2023-09-30T08:55:52;94340.97;;;26.17;30.58
10079;BME280;5078;42.544;22.966;2023-09-30T08:58:19;94341.44;;;26.09;31.23
10079;BME280;5078;42.544;22.966;2023-09-30T09:00:50;94325.78;;;26.21;29.19
10079;BME280;5078;42.544;22.966;2023-09-30T09:03:18;94342.44;;;26.77;29.59
10079;BME280;5078;42.544;22.966;2023-09-30T09:05:45;94326.09;;;25.92;30.26
10079;BME280;5078;42.544;22.966;2023-09-30T09:08:13;94326.41;;;26.38;30.26
10079;BME280;5078;42.544;22.966;2023-09-30T09:10:54;94326.63;;;26.74;29.32
10079;BME280;5078;42.544;22.966;2023-09-30T09:13:22;94309.97;;;26.18;29.46
10079;BME280;5078;42.544;22.966;2023-09-30T09:15:49;94323.59;;;26.23;29.41
10079;BME280;5078;42.544;22.966;2023-09-30T09:18:31;94326.00;;;26.57;29.63
10079;BME280;5078;42.544;22.966;2023-09-30T09:21:08;94324.97;;;26.73;28.57
10079;BME280;5078;42.544;22.966;2023-09-30T09:23:40;94311.94;;;26.75;29.41
10079;BME280;5078;42.544;22.966;2023-09-30T09:26:08;94333.16;;;26.31;29.51
10079;BME280;5078;42.544;22.966;2023-09-30T09:28:35;94329.25;;;26.54;29.33
10079;BME280;5078;42.544;22.966;2023-09-30T09:31:19;94317.94;;;26.77;29.17
10079;BME280;5078;42.544;22.966;2023-09-30T09:33:46;94325.06;;;26.41;29.15
10079;BME280;5078;42.544;22.966;2023-09-30T09:36:13;94320.06;;;26.65;29.39
10079;BME280;5078;42.544;22.966;2023-09-30T09:38:48;94329.97;;;26.39;29.42
10079;BME280;5078;42.544;22.966;2023-09-30T09:41:18;94326.88;;;26.25;28.70
10079;BME280;5078;42.544;22.966;2023-09-30T09:43:49;94317.78;;;25.77;30.00
10079;BME280;5078;42.544;22.966;2023-09-30T09:46:17;94313.06;;;25.35;29.84
10079;BME280;5078;42.544;22.966;2023-09-30T09:48:45;94280.97;;;25.59;29.74
10079;BME280;5078;42.544;22.966;2023-09-30T09:51:12;94318.16;;;26.23;29.47
10079;BME280;5078;42.544;22.966;2023-09-30T09:53:41;94308.97;;;25.92;30.26
10079;BME280;5078;42.544;22.966;2023-09-30T09:56:10;94305.75;;;26.42;28.76
10079;BME280;5078;42.544;22.966;2023-09-30T09:58:39;94314.81;;;26.11;29.76
10079;BME280;5078;42.544;22.966;2023-09-30T10:01:09;94307.28;;;26.23;29.37
10079;BME280;5078;42.544;22.966;2023-09-30T10:03:37;94304.97;;;25.99;29.26
10079;BME280;5078;42.544;22.966;2023-09-30T10:06:05;94309.91;;;25.75;30.74
10079;BME280;5078;42.544;22.966;2023-09-30T10:08:36;94299.63;;;25.50;30.61
10079;BME280;5078;42.544;22.966;2023-09-30T10:11:05;94299.94;;;25.54;30.28
10079;BME280;5078;42.544;22.966;2023-09-30T10:13:53;94287.56;;;26.00;30.21
10079;BME280;5078;42.544;22.966;2023-09-30T10:16:47;94296.03;;;25.72;29.57
10079;BME280;5078;42.544;22.966;2023-09-30T10:19:16;94299.91;;;25.81;30.04
10079;BME280;5078;42.544;22.966;2023-09-30T10:22:19;94291.16;;;26.06;29.95
10079;BME280;5078;42.544;22.966;2023-09-30T10:24:47;94281.22;;;25.57;30.37
10079;BME280;5078;42.544;22.966;2023-09-30T10:27:34;94292.72;;;24.88;30.84
10079;BME280;5078;42.544;22.966;2023-09-30T10:30:13;94284.47;;;25.00;31.68
10079;BME280;5078;42.544;22.966;2023-09-30T10:33:08;94276.69;;;25.09;31.97
10079;BME280;5078;42.544;22.966;2023-09-30T10:35:46;94281.81;;;25.32;31.09
10079;BME280;5078;42.544;22.966;2023-09-30T10:38:38;94272.25;;;25.25;31.27
10079;BME280;5078;42.544;22.966;2023-09-30T10:41:10;94272.22;;;25.20;31.67
10079;BME280;5078;42.544;22.966;2023-09-30T10:43:39;94278.28;;;25.05;31.48
10079;BME280;5078;42.544;22.966;2023-09-30T10:46:32;94272.91;;;25.37;31.33
10079;BME280;5078;42.544;22.966;2023-09-30T10:49:30;94265.53;;;25.32;31.15
10079;BME280;5078;42.544;22.966;2023-09-30T10:52:01;94273.66;;;25.59;30.41
10079;BME280;5078;42.544;22.966;2023-09-30T10:54:29;94270.78;;;25.39;30.31
10079;BME280;5078;42.544;22.966;2023-09-30T10:56:57;94254.63;;;25.00;31.26
10079;BME280;5078;42.544;22.966;2023-09-30T10:59:26;94269.31;;;25.04;31.06
10079;BME280;5078;42.544;22.966;2023-09-30T11:01:54;94261.88;;;25.16;31.27
10079;BME280;5078;42.544;22.966;2023-09-30T11:04:21;94253.06;;;25.31;30.91
10079;BME280;5078;42.544;22.966;2023-09-30T11:06:48;94241.19;;;25.15;30.66
10079;BME280;5078;42.544;22.966;2023-09-30T11:09:16;94244.94;;;25.09;30.86
10079;BME280;5078;42.544;22.966;2023-09-30T11:11:45;94250.44;;;24.65;31.04
10079;BME280;5078;42.544;22.966;2023-09-30T11:14:18;94254.16;;;24.37;31.53
10079;BME280;5078;42.544;22.966;2023-09-30T11:16:46;94245.44;;;24.79;31.27
10079;BME280;5078;42.544;22.966;2023-09-30T11:19:15;94244.50;;;25.17;30.86
10079;BME280;5078;42.544;22.966;2023-09-30T11:21:42;94239.34;;;25.48;30.61
10079;BME280;5078;42.544;22.966;2023-09-30T11:24:10;94243.47;;;25.88;29.82
10079;BME280;5078;42.544;22.966;2023-09-30T11:26:37;94246.69;;;25.85;30.39
10079;BME280;5078;42.544;22.966;2023-09-30T11:29:07;94235.75;;;25.75;29.95
10079;BME280;5078;42.544;22.966;2023-09-30T11:31:37;94240.03;;;25.71;29.43
10079;BME280;5078;42.544;22.966;2023-09-30T11:34:04;94231.06;;;25.33;30.50
10079;BME280;5078;42.544;22.966;2023-09-30T11:36:34;94227.81;;;25.68;30.17
10079;BME280;5078;42.544;22.966;2023-09-30T11:39:02;94227.69;;;25.21;29.14
10079;BME280;5078;42.544;22.966;2023-09-30T11:41:33;94217.34;;;24.90;28.90
10079;BME280;5078;42.544;22.966;2023-09-30T11:44:02;94215.66;;;24.84;29.65
10079;BME280;5078;42.544;22.966;2023-09-30T11:46:32;94220.88;;;24.91;29.86
10079;BME280;5078;42.544;22.966;2023-09-30T11:49:00;94219.53;;;24.44;30.48
10079;BME280;5078;42.544;22.966;2023-09-30T11:51:28;94205.59;;;24.36;30.52
10079;BME280;5078;42.544;22.966;2023-09-30T11:53:56;94203.78;;;24.63;30.18
10079;BME280;5078;42.544;22.966;2023-09-30T11:56:24;94201.44;;;24.72;30.49
10079;BME280;5078;42.544;22.966;2023-09-30T11:58:55;94201.44;;;24.72;30.54
10079;BME280;5078;42.544;22.966;2023-09-30T12:01:22;94197.25;;;24.59;30.26
10079;BME280;5078;42.544;22.966;2023-09-30T12:03:51;94203.88;;;24.46;30.53
10079;BME280;5078;42.544;22.966;2023-09-30T12:06:21;94195.03;;;24.34;30.34
10079;BME280;5078;42.544;22.966;2023-09-30T12:08:48;94195.09;;;24.39;30.91
10079;BME280;5078;42.544;22.966;2023-09-30T12:11:18;94194.66;;;24.47;30.42
10079;BME280;5078;42.544;22.966;2023-09-30T12:13:45;94190.91;;;24.53;30.66
10079;BME280;5078;42.544;22.966;2023-09-30T12:16:14;94185.31;;;24.60;30.20
10079;BME280;5078;42.544;22.966;2023-09-30T12:18:41;94187.34;;;24.48;30.28
10079;BME280;5078;42.544;22.966;2023-09-30T12:21:08;94177.97;;;24.39;30.56
10079;BME280;5078;42.544;22.966;2023-09-30T12:23:36;94174.41;;;24.55;30.23
10079;BME280;5078;42.544;22.966;2023-09-30T12:26:03;94169.59;;;24.62;29.54
10079;BME280;5078;42.544;22.966;2023-09-30T12:28:32;94171.69;;;24.55;30.39
10079;BME280;5078;42.544;22.966;2023-09-30T12:30:59;94173.66;;;24.38;30.49
10079;BME280;5078;42.544;22.966;2023-09-30T12:33:28;94172.50;;;24.33;30.35
10079;BME280;5078;42.544;22.966;2023-09-30T12:35:55;94168.16;;;24.10;30.53
10079;BME280;5078;42.544;22.966;2023-09-30T12:38:22;94163.88;;;24.37;30.69
10079;BME280;5078;42.544;22.966;2023-09-30T12:40:51;94168.03;;;24.44;30.84
10079;BME280;5078;42.544;22.966;2023-09-30T12:43:17;94162.00;;;24.59;30.47
10079;BME280;5078;42.544;22.966;2023-09-30T12:45:46;94155.38;;;24.77;30.37
10079;BME280;5078;42.544;22.966;2023-09-30T12:48:12;94164.44;;;24.88;30.31
10079;BME280;5078;42.544;22.966;2023-09-30T12:50:39;94162.03;;;24.91;30.73
10079;BME280;5078;42.544;22.966;2023-09-30T12:53:06;94158.75;;;24.62;30.83
10079;BME280;5078;42.544;22.966;2023-09-30T12:55:33;94153.25;;;24.52;31.00
10079;BME280;5078;42.544;22.966;2023-09-30T12:58:00;94153.88;;;24.15;30.98
10079;BME280;5078;42.544;22.966;2023-09-30T13:00:26;94148.63;;;24.08;31.30
10079;BME280;5078;42.544;22.966;2023-09-30T13:02:57;94146.81;;;24.14;31.61
10079;BME280;5078;42.544;22.966;2023-09-30T13:05:24;94144.69;;;24.43;31.83